sensor_id;sensor_type;location;lat;lon;timestamp;P1;durP1;ratioP1;P2;durP2;ratioP2
1877;SDS011;939;51.426;6.972;2023-02-18T00:00:16;9.80;;;6.07;;
1877;SDS011;939;51.426;6.972;2023-02-18T00:05:41;10.50;;;6.67;;
1877;SDS011;939;51.426;6.972;2023-02-18T00:08:09;10.20;;;5.73;;
1877;SDS011;939;51.426;6.972;2023-02-18T00:10:39;6.63;;;4.93;;
1877;SDS011;939;51.426;6.972;2023-02-18T00:13:08;12.50;;;6.70;;
1877;SDS011;939;51.426;6.972;2023-02-18T00:15:37;10.20;;;7.18;;
1877;SDS011;939;51.426;6.972;2023-02-18T00:18:07;8.07;;;6.30;;
1877;SDS011;939;51.426;6.972;2023-02-18T00:20:46;17.83;;;6.10;;
1877;SDS011;939;51.426;6.972;2023-02-18T00:23:24;5.53;;;4.43;;
1877;SDS011;939;51.426;6.972;2023-02-18T00:26:00;11.70;;;6.38;;
1877;SDS011;939;51.426;6.972;2023-02-18T00:28:29;10.80;;;6.20;;
1877;SDS011;939;51.426;6.972;2023-02-18T00:31:05;8.60;;;5.10;;
1877;SDS011;939;51.426;6.972;2023-02-18T00:33:45;11.98;;;6.18;;
1877;SDS011;939;51.426;6.972;2023-02-18T00:36:18;17.27;;;7.40;;
1877;SDS011;939;51.426;6.972;2023-02-18T00:39:09;10.77;;;7.68;;
1877;SDS011;939;51.426;6.972;2023-02-18T00:41:37;9.85;;;4.93;;
1877;SDS011;939;51.426;6.972;2023-02-18T00:44:06;7.53;;;6.60;;
1877;SDS011;939;51.426;6.972;2023-02-18T00:46:44;10.70;;;6.73;;
1877;SDS011;939;51.426;6.972;2023-02-18T00:49:14;8.07;;;3.80;;
1877;SDS011;939;51.426;6.972;2023-02-18T00:51:41;7.70;;;5.90;;
1877;SDS011;939;51.426;6.972;2023-02-18T00:54:10;14.10;;;7.23;;
1877;SDS011;939;51.426;6.972;2023-02-18T00:56:38;8.23;;;5.47;;
1877;SDS011;939;51.426;6.972;2023-02-18T00:59:08;13.70;;;8.20;;
1877;SDS011;939;51.426;6.972;2023-02-18T01:01:42;11.90;;;6.55;;
1877;SDS011;939;51.426;6.972;2023-02-18T01:04:17;10.83;;;6.00;;
1877;SDS011;939;51.426;6.972;2023-02-18T01:06:59;10.65;;;5.95;;
1877;SDS011;939;51.426;6.972;2023-02-18T01:09:26;10.82;;;6.05;;
1877;SDS011;939;51.426;6.972;2023-02-18T01:11:57;11.10;;;6.00;;
1877;SDS011;939;51.426;6.972;2023-02-18T01:14:24;11.77;;;5.47;;
1877;SDS011;939;51.426;6.972;2023-02-18T01:16:52;10.70;;;6.60;;
1877;SDS011;939;51.426;6.972;2023-02-18T01:19:19;6.75;;;5.07;;
1877;SDS011;939;51.426;6.972;2023-02-18T01:21:47;11.93;;;6.07;;
1877;SDS011;939;51.426;6.972;2023-02-18T01:24:16;12.37;;;5.67;;
1877;SDS011;939;51.426;6.972;2023-02-18T01:26:52;8.02;;;5.53;;
1877;SDS011;939;51.426;6.972;2023-02-18T01:29:19;5.38;;;4.30;;
1877;SDS011;939;51.426;6.972;2023-02-18T01:31:52;9.88;;;5.35;;
1877;SDS011;939;51.426;6.972;2023-02-18T01:34:38;8.82;;;6.05;;
1877;SDS011;939;51.426;6.972;2023-02-18T01:37:08;5.80;;;3.57;;
1877;SDS011;939;51.426;6.972;2023-02-18T01:39:36;7.32;;;4.75;;
1877;SDS011;939;51.426;6.972;2023-02-18T01:42:13;7.43;;;5.27;;
1877;SDS011;939;51.426;6.972;2023-02-18T01:44:51;11.43;;;5.57;;
1877;SDS011;939;51.426;6.972;2023-02-18T01:47:24;11.13;;;5.45;;
1877;SDS011;939;51.426;6.972;2023-02-18T01:49:54;14.07;;;5.60;;
1877;SDS011;939;51.426;6.972;2023-02-18T01:52:24;7.68;;;4.47;;
1877;SDS011;939;51.426;6.972;2023-02-18T01:54:56;11.13;;;4.43;;
1877;SDS011;939;51.426;6.972;2023-02-18T01:57:26;4.75;;;2.55;;
1877;SDS011;939;51.426;6.972;2023-02-18T02:00:03;5.50;;;3.13;;
1877;SDS011;939;51.426;6.972;2023-02-18T02:02:43;9.35;;;4.97;;
1877;SDS011;939;51.426;6.972;2023-02-18T02:05:11;7.43;;;4.90;;
1877;SDS011;939;51.426;6.972;2023-02-18T02:07:59;8.00;;;5.90;;
1877;SDS011;939;51.426;6.972;2023-02-18T02:10:29;6.33;;;3.10;;
1877;SDS011;939;51.426;6.972;2023-02-18T02:13:09;7.63;;;5.45;;
1877;SDS011;939;51.426;6.972;2023-02-18T02:15:46;7.15;;;5.32;;
1877;SDS011;939;51.426;6.972;2023-02-18T02:18:28;5.15;;;3.80;;
1877;SDS011;939;51.426;6.972;2023-02-18T02:21:19;7.00;;;3.63;;
1877;SDS011;939;51.426;6.972;2023-02-18T02:24:30;4.38;;;2.95;;
1877;SDS011;939;51.426;6.972;2023-02-18T02:33:49;3.60;;;3.05;;
1877;SDS011;939;51.426;6.972;2023-02-18T02:36:45;4.37;;;3.70;;
1877;SDS011;939;51.426;6.972;2023-02-18T02:39:26;4.38;;;3.15;;
1877;SDS011;939;51.426;6.972;2023-02-18T02:42:08;5.00;;;3.63;;
1877;SDS011;939;51.426;6.972;2023-02-18T02:44:56;5.45;;;3.35;;
1877;SDS011;939;51.426;6.972;2023-02-18T02:47:32;3.63;;;2.53;;
1877;SDS011;939;51.426;6.972;2023-02-18T02:50:16;3.17;;;2.63;;
1877;SDS011;939;51.426;6.972;2023-02-18T02:52:57;6.38;;;4.00;;
1877;SDS011;939;51.426;6.972;2023-02-18T02:55:27;6.45;;;3.97;;
1877;SDS011;939;51.426;6.972;2023-02-18T02:58:04;2.97;;;2.55;;
1877;SDS011;939;51.426;6.972;2023-02-18T03:00:33;5.43;;;3.53;;
1877;SDS011;939;51.426;6.972;2023-02-18T03:03:14;5.40;;;3.05;;
1877;SDS011;939;51.426;6.972;2023-02-18T03:06:00;6.07;;;3.28;;
1877;SDS011;939;51.426;6.972;2023-02-18T03:09:01;3.90;;;3.23;;
1877;SDS011;939;51.426;6.972;2023-02-18T03:11:43;4.05;;;2.17;;
1877;SDS011;939;51.426;6.972;2023-02-18T03:14:21;2.50;;;2.17;;
1877;SDS011;939;51.426;6.972;2023-02-18T03:16:57;3.75;;;3.38;;
1877;SDS011;939;51.426;6.972;2023-02-18T03:19:28;7.38;;;3.67;;
1877;SDS011;939;51.426;6.972;2023-02-18T03:22:04;4.30;;;3.05;;
1877;SDS011;939;51.426;6.972;2023-02-18T03:24:41;2.47;;;2.28;;
1877;SDS011;939;51.426;6.972;2023-02-18T03:27:12;3.35;;;2.88;;
1877;SDS011;939;51.426;6.972;2023-02-18T03:29:42;4.30;;;2.70;;
1877;SDS011;939;51.426;6.972;2023-02-18T03:32:15;3.65;;;2.47;;
1877;SDS011;939;51.426;6.972;2023-02-18T03:34:48;4.45;;;3.03;;
1877;SDS011;939;51.426;6.972;2023-02-18T03:37:21;6.15;;;3.05;;
1877;SDS011;939;51.426;6.972;2023-02-18T03:39:54;7.65;;;3.90;;
1877;SDS011;939;51.426;6.972;2023-02-18T03:42:26;4.22;;;3.60;;
1877;SDS011;939;51.426;6.972;2023-02-18T03:44:54;6.73;;;3.80;;
1877;SDS011;939;51.426;6.972;2023-02-18T03:47:23;5.95;;;3.80;;
1877;SDS011;939;51.426;6.972;2023-02-18T03:49:50;3.83;;;3.10;;
1877;SDS011;939;51.426;6.972;2023-02-18T03:52:17;4.38;;;2.83;;
1877;SDS011;939;51.426;6.972;2023-02-18T03:54:44;6.22;;;4.65;;
1877;SDS011;939;51.426;6.972;2023-02-18T03:57:12;8.52;;;3.15;;
1877;SDS011;939;51.426;6.972;2023-02-18T03:59:40;4.22;;;2.83;;
1877;SDS011;939;51.426;6.972;2023-02-18T04:02:07;6.13;;;4.13;;
1877;SDS011;939;51.426;6.972;2023-02-18T04:04:34;6.05;;;3.72;;
1877;SDS011;939;51.426;6.972;2023-02-18T04:07:04;5.35;;;3.05;;
1877;SDS011;939;51.426;6.972;2023-02-18T04:09:31;4.63;;;3.88;;
1877;SDS011;939;51.426;6.972;2023-02-18T04:11:58;9.02;;;3.80;;
1877;SDS011;939;51.426;6.972;2023-02-18T04:14:33;7.80;;;2.78;;
1877;SDS011;939;51.426;6.972;2023-02-18T04:17:00;7.68;;;3.75;;
1877;SDS011;939;51.426;6.972;2023-02-18T04:19:27;2.45;;;1.90;;
1877;SDS011;939;51.426;6.972;2023-02-18T04:21:54;6.28;;;4.07;;
1877;SDS011;939;51.426;6.972;2023-02-18T04:24:21;3.03;;;2.65;;
1877;SDS011;939;51.426;6.972;2023-02-18T04:26:48;6.13;;;3.40;;
1877;SDS011;939;51.426;6.972;2023-02-18T04:29:18;3.75;;;2.40;;
1877;SDS011;939;51.426;6.972;2023-02-18T04:31:47;4.30;;;2.42;;
1877;SDS011;939;51.426;6.972;2023-02-18T04:34:13;6.03;;;3.80;;
1877;SDS011;939;51.426;6.972;2023-02-18T04:36:41;3.97;;;2.95;;
1877;SDS011;939;51.426;6.972;2023-02-18T04:39:08;6.22;;;3.65;;
1877;SDS011;939;51.426;6.972;2023-02-18T04:41:38;4.82;;;2.33;;
1877;SDS011;939;51.426;6.972;2023-02-18T04:44:05;2.15;;;1.70;;
1877;SDS011;939;51.426;6.972;2023-02-18T04:46:32;4.13;;;2.60;;
1877;SDS011;939;51.426;6.972;2023-02-18T04:49:00;3.38;;;1.90;;
1877;SDS011;939;51.426;6.972;2023-02-18T04:51:32;2.85;;;1.30;;
1877;SDS011;939;51.426;6.972;2023-02-18T04:54:02;2.88;;;1.95;;
1877;SDS011;939;51.426;6.972;2023-02-18T04:56:29;2.85;;;1.23;;
1877;SDS011;939;51.426;6.972;2023-02-18T04:58:56;3.35;;;1.95;;
1877;SDS011;939;51.426;6.972;2023-02-18T05:01:51;1.60;;;1.30;;
1877;SDS011;939;51.426;6.972;2023-02-18T05:04:31;3.95;;;2.17;;
1877;SDS011;939;51.426;6.972;2023-02-18T05:07:03;2.10;;;1.25;;
1877;SDS011;939;51.426;6.972;2023-02-18T05:09:37;2.25;;;1.52;;
1877;SDS011;939;51.426;6.972;2023-02-18T05:12:08;1.63;;;1.10;;
1877;SDS011;939;51.426;6.972;2023-02-18T05:14:41;2.63;;;1.40;;
1877;SDS011;939;51.426;6.972;2023-02-18T05:17:08;1.70;;;1.55;;
1877;SDS011;939;51.426;6.972;2023-02-18T05:19:41;1.67;;;1.45;;
1877;SDS011;939;51.426;6.972;2023-02-18T05:22:09;1.65;;;1.10;;
1877;SDS011;939;51.426;6.972;2023-02-18T05:24:36;1.00;;;0.80;;
1877;SDS011;939;51.426;6.972;2023-02-18T05:27:06;2.55;;;1.83;;
1877;SDS011;939;51.426;6.972;2023-02-18T05:29:34;1.80;;;1.10;;
1877;SDS011;939;51.426;6.972;2023-02-18T05:32:04;2.15;;;1.98;;
1877;SDS011;939;51.426;6.972;2023-02-18T05:34:32;1.75;;;1.30;;
1877;SDS011;939;51.426;6.972;2023-02-18T05:37:00;5.65;;;2.25;;
1877;SDS011;939;51.426;6.972;2023-02-18T05:39:27;1.70;;;1.38;;
1877;SDS011;939;51.426;6.972;2023-02-18T05:42:00;2.63;;;1.70;;
1877;SDS011;939;51.426;6.972;2023-02-18T05:44:30;2.45;;;1.50;;
1877;SDS011;939;51.426;6.972;2023-02-18T05:46:58;1.20;;;0.80;;
1877;SDS011;939;51.426;6.972;2023-02-18T05:49:27;1.63;;;0.90;;
1877;SDS011;939;51.426;6.972;2023-02-18T05:51:55;2.50;;;1.90;;
1877;SDS011;939;51.426;6.972;2023-02-18T05:54:26;1.25;;;1.15;;
1877;SDS011;939;51.426;6.972;2023-02-18T05:56:59;10.65;;;1.95;;
1877;SDS011;939;51.426;6.972;2023-02-18T05:59:26;1.90;;;1.25;;
1877;SDS011;939;51.426;6.972;2023-02-18T06:01:56;3.25;;;2.25;;
1877;SDS011;939;51.426;6.972;2023-02-18T06:04:33;1.90;;;1.10;;
1877;SDS011;939;51.426;6.972;2023-02-18T06:07:04;1.30;;;1.20;;
1877;SDS011;939;51.426;6.972;2023-02-18T06:09:41;1.85;;;1.50;;
1877;SDS011;939;51.426;6.972;2023-02-18T06:12:09;2.80;;;1.30;;
1877;SDS011;939;51.426;6.972;2023-02-18T06:14:35;1.23;;;0.88;;
1877;SDS011;939;51.426;6.972;2023-02-18T06:17:06;1.85;;;1.23;;
1877;SDS011;939;51.426;6.972;2023-02-18T06:19:33;2.05;;;1.75;;
1877;SDS011;939;51.426;6.972;2023-02-18T06:22:04;2.03;;;1.20;;
1877;SDS011;939;51.426;6.972;2023-02-18T06:24:32;1.55;;;1.23;;
1877;SDS011;939;51.426;6.972;2023-02-18T06:27:04;5.97;;;1.25;;
1877;SDS011;939;51.426;6.972;2023-02-18T06:29:34;1.30;;;1.17;;
1877;SDS011;939;51.426;6.972;2023-02-18T06:32:02;2.20;;;1.58;;
1877;SDS011;939;51.426;6.972;2023-02-18T06:34:35;1.80;;;1.20;;
1877;SDS011;939;51.426;6.972;2023-02-18T06:37:05;1.00;;;0.80;;
1877;SDS011;939;51.426;6.972;2023-02-18T06:39:34;2.65;;;1.10;;
1877;SDS011;939;51.426;6.972;2023-02-18T06:42:01;1.20;;;0.98;;
1877;SDS011;939;51.426;6.972;2023-02-18T06:44:36;1.58;;;1.35;;
1877;SDS011;939;51.426;6.972;2023-02-18T06:47:03;1.52;;;1.25;;
1877;SDS011;939;51.426;6.972;2023-02-18T06:49:31;1.48;;;1.20;;
1877;SDS011;939;51.426;6.972;2023-02-18T06:52:03;2.97;;;1.63;;
1877;SDS011;939;51.426;6.972;2023-02-18T06:54:31;2.40;;;1.90;;
1877;SDS011;939;51.426;6.972;2023-02-18T06:56:59;1.85;;;1.20;;
1877;SDS011;939;51.426;6.972;2023-02-18T06:59:28;1.83;;;1.63;;
1877;SDS011;939;51.426;6.972;2023-02-18T07:01:55;2.10;;;1.00;;
1877;SDS011;939;51.426;6.972;2023-02-18T07:04:24;1.88;;;1.45;;
1877;SDS011;939;51.426;6.972;2023-02-18T07:06:57;1.27;;;1.17;;
1877;SDS011;939;51.426;6.972;2023-02-18T07:09:24;1.30;;;0.90;;
1877;SDS011;939;51.426;6.972;2023-02-18T07:11:51;1.52;;;0.88;;
1877;SDS011;939;51.426;6.972;2023-02-18T07:14:18;1.65;;;1.33;;
1877;SDS011;939;51.426;6.972;2023-02-18T07:16:47;1.67;;;1.45;;
1877;SDS011;939;51.426;6.972;2023-02-18T07:19:15;2.85;;;1.30;;
1877;SDS011;939;51.426;6.972;2023-02-18T07:21:48;1.20;;;1.10;;
1877;SDS011;939;51.426;6.972;2023-02-18T07:24:18;3.40;;;1.40;;
1877;SDS011;939;51.426;6.972;2023-02-18T07:26:45;1.55;;;1.42;;
1877;SDS011;939;51.426;6.972;2023-02-18T07:29:13;1.33;;;1.17;;
1877;SDS011;939;51.426;6.972;2023-02-18T07:31:51;2.83;;;1.88;;
1877;SDS011;939;51.426;6.972;2023-02-18T07:34:18;1.60;;;1.38;;
1877;SDS011;939;51.426;6.972;2023-02-18T07:36:51;1.75;;;1.55;;
1877;SDS011;939;51.426;6.972;2023-02-18T07:39:44;1.23;;;0.98;;
1877;SDS011;939;51.426;6.972;2023-02-18T07:42:12;2.33;;;1.70;;
1877;SDS011;939;51.426;6.972;2023-02-18T07:44:50;1.30;;;1.20;;
1877;SDS011;939;51.426;6.972;2023-02-18T07:50:03;1.00;;;0.80;;
1877;SDS011;939;51.426;6.972;2023-02-18T07:52:43;2.30;;;1.45;;
1877;SDS011;939;51.426;6.972;2023-02-18T07:55:19;1.33;;;1.23;;
1877;SDS011;939;51.426;6.972;2023-02-18T07:57:48;1.40;;;0.80;;
1877;SDS011;939;51.426;6.972;2023-02-18T08:00:26;1.42;;;1.10;;
1877;SDS011;939;51.426;6.972;2023-02-18T08:02:57;2.58;;;1.15;;
1877;SDS011;939;51.426;6.972;2023-02-18T08:05:31;1.60;;;1.15;;
1877;SDS011;939;51.426;6.972;2023-02-18T08:07:58;1.95;;;1.27;;
1877;SDS011;939;51.426;6.972;2023-02-18T08:10:25;1.23;;;0.90;;
1877;SDS011;939;51.426;6.972;2023-02-18T08:12:53;1.00;;;0.80;;
1877;SDS011;939;51.426;6.972;2023-02-18T08:15:23;1.30;;;1.00;;
1877;SDS011;939;51.426;6.972;2023-02-18T08:17:51;1.15;;;0.82;;
1877;SDS011;939;51.426;6.972;2023-02-18T08:20:21;1.83;;;0.90;;
1877;SDS011;939;51.426;6.972;2023-02-18T08:22:50;2.10;;;1.67;;
1877;SDS011;939;51.426;6.972;2023-02-18T08:25:18;1.95;;;1.55;;
1877;SDS011;939;51.426;6.972;2023-02-18T08:27:53;1.52;;;1.10;;
1877;SDS011;939;51.426;6.972;2023-02-18T08:30:24;1.80;;;1.60;;
1877;SDS011;939;51.426;6.972;2023-02-18T08:32:57;1.63;;;1.48;;
1877;SDS011;939;51.426;6.972;2023-02-18T08:35:30;1.27;;;1.10;;
1877;SDS011;939;51.426;6.972;2023-02-18T08:38:00;2.35;;;1.35;;
1877;SDS011;939;51.426;6.972;2023-02-18T08:40:31;1.10;;;1.00;;
1877;SDS011;939;51.426;6.972;2023-02-18T08:42:59;1.30;;;1.15;;
1877;SDS011;939;51.426;6.972;2023-02-18T08:45:37;1.42;;;1.10;;
1877;SDS011;939;51.426;6.972;2023-02-18T08:48:07;1.85;;;1.20;;
1877;SDS011;939;51.426;6.972;2023-02-18T08:50:39;2.10;;;1.30;;
1877;SDS011;939;51.426;6.972;2023-02-18T08:53:07;1.42;;;1.30;;
1877;SDS011;939;51.426;6.972;2023-02-18T08:55:43;1.20;;;1.05;;
1877;SDS011;939;51.426;6.972;2023-02-18T08:58:13;7.30;;;1.85;;
1877;SDS011;939;51.426;6.972;2023-02-18T09:00:44;2.15;;;1.60;;
1877;SDS011;939;51.426;6.972;2023-02-18T09:03:14;2.33;;;1.60;;
1877;SDS011;939;51.426;6.972;2023-02-18T09:05:45;1.98;;;1.60;;
1877;SDS011;939;51.426;6.972;2023-02-18T09:08:13;1.77;;;1.20;;
1877;SDS011;939;51.426;6.972;2023-02-18T09:11:03;2.15;;;1.05;;
1877;SDS011;939;51.426;6.972;2023-02-18T09:13:41;1.42;;;1.33;;
1877;SDS011;939;51.426;6.972;2023-02-18T09:16:10;1.63;;;1.00;;
1877;SDS011;939;51.426;6.972;2023-02-18T09:18:40;3.53;;;2.03;;
1877;SDS011;939;51.426;6.972;2023-02-18T09:21:12;2.28;;;1.67;;
1877;SDS011;939;51.426;6.972;2023-02-18T09:23:45;2.05;;;1.50;;
1877;SDS011;939;51.426;6.972;2023-02-18T09:26:16;2.08;;;0.98;;
1877;SDS011;939;51.426;6.972;2023-02-18T09:28:45;1.30;;;1.00;;
1877;SDS011;939;51.426;6.972;2023-02-18T09:31:23;2.78;;;1.95;;
1877;SDS011;939;51.426;6.972;2023-02-18T09:34:04;3.53;;;1.88;;
1877;SDS011;939;51.426;6.972;2023-02-18T09:36:52;8.02;;;1.90;;
1877;SDS011;939;51.426;6.972;2023-02-18T09:39:27;1.40;;;1.20;;
1877;SDS011;939;51.426;6.972;2023-02-18T09:42:15;2.20;;;1.05;;
1877;SDS011;939;51.426;6.972;2023-02-18T09:44:59;1.70;;;1.42;;
1877;SDS011;939;51.426;6.972;2023-02-18T09:47:55;2.40;;;1.45;;
1877;SDS011;939;51.426;6.972;2023-02-18T09:50:27;1.20;;;1.08;;
1877;SDS011;939;51.426;6.972;2023-02-18T09:52:59;6.47;;;1.35;;
1877;SDS011;939;51.426;6.972;2023-02-18T09:55:34;1.83;;;1.55;;
1877;SDS011;939;51.426;6.972;2023-02-18T09:58:10;1.40;;;1.20;;
1877;SDS011;939;51.426;6.972;2023-02-18T10:00:46;1.35;;;1.25;;
1877;SDS011;939;51.426;6.972;2023-02-18T10:03:18;2.47;;;1.25;;
1877;SDS011;939;51.426;6.972;2023-02-18T10:05:53;2.13;;;1.00;;
1877;SDS011;939;51.426;6.972;2023-02-18T10:08:32;16.20;;;2.15;;
1877;SDS011;939;51.426;6.972;2023-02-18T10:11:11;13.10;;;2.67;;
1877;SDS011;939;51.426;6.972;2023-02-18T10:13:48;2.65;;;1.58;;
1877;SDS011;939;51.426;6.972;2023-02-18T10:16:22;1.15;;;0.95;;
1877;SDS011;939;51.426;6.972;2023-02-18T10:18:52;1.20;;;1.08;;
1877;SDS011;939;51.426;6.972;2023-02-18T10:21:24;1.30;;;0.93;;
1877;SDS011;939;51.426;6.972;2023-02-18T10:23:58;1.50;;;1.30;;
1877;SDS011;939;51.426;6.972;2023-02-18T10:26:44;1.48;;;1.38;;
1877;SDS011;939;51.426;6.972;2023-02-18T10:29:33;1.25;;;1.05;;
1877;SDS011;939;51.426;6.972;2023-02-18T10:32:05;1.58;;;1.48;;
1877;SDS011;939;51.426;6.972;2023-02-18T10:34:56;8.93;;;2.63;;
1877;SDS011;939;51.426;6.972;2023-02-18T10:43:47;5.22;;;1.85;;
1877;SDS011;939;51.426;6.972;2023-02-18T10:46:33;5.35;;;1.70;;
1877;SDS011;939;51.426;6.972;2023-02-18T10:49:22;2.05;;;1.75;;
1877;SDS011;939;51.426;6.972;2023-02-18T10:52:02;2.08;;;1.35;;
1877;SDS011;939;51.426;6.972;2023-02-18T10:56:28;2.65;;;1.60;;
1877;SDS011;939;51.426;6.972;2023-02-18T10:58:34;1.42;;;0.90;;
1877;SDS011;939;51.426;6.972;2023-02-18T11:01:03;2.33;;;2.13;;
1877;SDS011;939;51.426;6.972;2023-02-18T11:04:11;2.08;;;1.35;;
1877;SDS011;939;51.426;6.972;2023-02-18T11:06:50;3.80;;;1.65;;
1877;SDS011;939;51.426;6.972;2023-02-18T11:09:25;2.97;;;1.35;;
1877;SDS011;939;51.426;6.972;2023-02-18T11:12:18;1.20;;;1.10;;
1877;SDS011;939;51.426;6.972;2023-02-18T11:15:02;1.65;;;1.05;;
1877;SDS011;939;51.426;6.972;2023-02-18T11:17:44;1.95;;;1.42;;
1877;SDS011;939;51.426;6.972;2023-02-18T11:20:23;3.40;;;1.35;;
1877;SDS011;939;51.426;6.972;2023-02-18T11:23:11;11.25;;;3.05;;
1877;SDS011;939;51.426;6.972;2023-02-18T11:25:55;3.40;;;1.48;;
1877;SDS011;939;51.426;6.972;2023-02-18T11:28:34;2.47;;;1.73;;
1877;SDS011;939;51.426;6.972;2023-02-18T11:31:33;3.50;;;2.67;;
1877;SDS011;939;51.426;6.972;2023-02-18T11:34:28;1.33;;;1.23;;
1877;SDS011;939;51.426;6.972;2023-02-18T11:37:07;2.50;;;2.15;;
1877;SDS011;939;51.426;6.972;2023-02-18T11:39:35;2.10;;;1.50;;
1877;SDS011;939;51.426;6.972;2023-02-18T11:42:10;2.83;;;1.70;;
1877;SDS011;939;51.426;6.972;2023-02-18T11:44:47;2.80;;;1.65;;
1877;SDS011;939;51.426;6.972;2023-02-18T11:47:23;2.20;;;1.90;;
1877;SDS011;939;51.426;6.972;2023-02-18T11:49:59;3.42;;;1.90;;
1877;SDS011;939;51.426;6.972;2023-02-18T11:52:46;2.78;;;2.22;;
1877;SDS011;939;51.426;6.972;2023-02-18T11:55:20;3.60;;;1.98;;
1877;SDS011;939;51.426;6.972;2023-02-18T11:57:49;6.43;;;2.95;;
1877;SDS011;939;51.426;6.972;2023-02-18T12:00:22;8.38;;;2.40;;
1877;SDS011;939;51.426;6.972;2023-02-18T12:02:56;3.50;;;2.60;;
1877;SDS011;939;51.426;6.972;2023-02-18T12:05:27;10.80;;;5.28;;
1877;SDS011;939;51.426;6.972;2023-02-18T12:08:00;2.00;;;1.63;;
1877;SDS011;939;51.426;6.972;2023-02-18T12:10:33;2.67;;;2.47;;
1877;SDS011;939;51.426;6.972;2023-02-18T12:13:04;1.75;;;1.63;;
1877;SDS011;939;51.426;6.972;2023-02-18T12:15:48;4.68;;;2.90;;
1877;SDS011;939;51.426;6.972;2023-02-18T12:18:24;4.40;;;2.70;;
1877;SDS011;939;51.426;6.972;2023-02-18T12:21:17;5.13;;;2.85;;
1877;SDS011;939;51.426;6.972;2023-02-18T12:24:01;5.18;;;2.95;;
1877;SDS011;939;51.426;6.972;2023-02-18T12:26:43;11.55;;;3.70;;
1877;SDS011;939;51.426;6.972;2023-02-18T12:32:23;1.80;;;1.60;;
1877;SDS011;939;51.426;6.972;2023-02-18T12:35:21;1.63;;;1.10;;
1877;SDS011;939;51.426;6.972;2023-02-18T12:38:26;2.67;;;2.25;;
1877;SDS011;939;51.426;6.972;2023-02-18T12:41:19;7.38;;;4.60;;
1877;SDS011;939;51.426;6.972;2023-02-18T12:44:02;3.75;;;3.45;;
1877;SDS011;939;51.426;6.972;2023-02-18T12:46:42;7.30;;;3.95;;
1877;SDS011;939;51.426;6.972;2023-02-18T12:49:39;8.55;;;4.10;;
1877;SDS011;939;51.426;6.972;2023-02-18T12:52:20;3.88;;;2.92;;
1877;SDS011;939;51.426;6.972;2023-02-18T12:58:02;3.47;;;2.42;;
1877;SDS011;939;51.426;6.972;2023-02-18T13:00:44;3.70;;;3.28;;
1877;SDS011;939;51.426;6.972;2023-02-18T13:03:39;11.00;;;5.32;;
1877;SDS011;939;51.426;6.972;2023-02-18T13:06:32;4.53;;;2.38;;
1877;SDS011;939;51.426;6.972;2023-02-18T13:09:12;5.70;;;3.90;;
1877;SDS011;939;51.426;6.972;2023-02-18T13:11:49;8.82;;;4.10;;
1877;SDS011;939;51.426;6.972;2023-02-18T13:14:21;3.85;;;2.47;;
1877;SDS011;939;51.426;6.972;2023-02-18T13:16:53;5.90;;;4.10;;
1877;SDS011;939;51.426;6.972;2023-02-18T13:19:24;2.80;;;2.50;;
1877;SDS011;939;51.426;6.972;2023-02-18T13:21:55;6.05;;;3.78;;
1877;SDS011;939;51.426;6.972;2023-02-18T13:24:32;8.10;;;4.55;;
1877;SDS011;939;51.426;6.972;2023-02-18T13:27:02;5.78;;;4.20;;
1877;SDS011;939;51.426;6.972;2023-02-18T13:29:42;11.48;;;5.13;;
1877;SDS011;939;51.426;6.972;2023-02-18T13:32:15;3.75;;;3.00;;
1877;SDS011;939;51.426;6.972;2023-02-18T13:34:51;5.60;;;3.53;;
1877;SDS011;939;51.426;6.972;2023-02-18T13:37:25;3.17;;;2.13;;
1877;SDS011;939;51.426;6.972;2023-02-18T13:40:00;7.53;;;3.78;;
1877;SDS011;939;51.426;6.972;2023-02-18T13:42:34;6.15;;;5.40;;
1877;SDS011;939;51.426;6.972;2023-02-18T13:45:03;15.10;;;6.32;;
1877;SDS011;939;51.426;6.972;2023-02-18T13:50:20;12.80;;;6.18;;
1877;SDS011;939;51.426;6.972;2023-02-18T13:55:52;8.88;;;6.43;;
1877;SDS011;939;51.426;6.972;2023-02-18T13:58:24;3.63;;;2.78;;
1877;SDS011;939;51.426;6.972;2023-02-18T14:01:01;16.40;;;8.90;;
1877;SDS011;939;51.426;6.972;2023-02-18T14:03:35;8.88;;;6.18;;
1877;SDS011;939;51.426;6.972;2023-02-18T14:06:17;9.48;;;5.97;;
1877;SDS011;939;51.426;6.972;2023-02-18T14:08:45;3.85;;;2.70;;
1877;SDS011;939;51.426;6.972;2023-02-18T14:11:30;7.22;;;5.22;;
1877;SDS011;939;51.426;6.972;2023-02-18T14:14:14;7.75;;;6.60;;
1877;SDS011;939;51.426;6.972;2023-02-18T14:26:05;7.72;;;4.05;;
1877;SDS011;939;51.426;6.972;2023-02-18T14:28:40;5.47;;;4.38;;
1877;SDS011;939;51.426;6.972;2023-02-18T14:31:20;6.93;;;5.28;;
1877;SDS011;939;51.426;6.972;2023-02-18T14:33:55;9.32;;;6.65;;
1877;SDS011;939;51.426;6.972;2023-02-18T14:36:35;5.47;;;4.97;;
1877;SDS011;939;51.426;6.972;2023-02-18T14:39:10;8.70;;;5.25;;
1877;SDS011;939;51.426;6.972;2023-02-18T14:42:00;5.03;;;3.85;;
1877;SDS011;939;51.426;6.972;2023-02-18T14:44:38;4.63;;;3.65;;
1877;SDS011;939;51.426;6.972;2023-02-18T14:47:21;11.50;;;6.18;;
1877;SDS011;939;51.426;6.972;2023-02-18T14:49:57;7.03;;;3.65;;
1877;SDS011;939;51.426;6.972;2023-02-18T14:52:29;4.93;;;4.43;;
1877;SDS011;939;51.426;6.972;2023-02-18T14:55:04;14.50;;;6.07;;
1877;SDS011;939;51.426;6.972;2023-02-18T14:57:35;7.22;;;4.55;;
1877;SDS011;939;51.426;6.972;2023-02-18T15:00:25;8.55;;;4.68;;
1877;SDS011;939;51.426;6.972;2023-02-18T15:02:56;11.20;;;5.30;;
1877;SDS011;939;51.426;6.972;2023-02-18T15:05:25;5.95;;;4.15;;
1877;SDS011;939;51.426;6.972;2023-02-18T15:07:55;10.48;;;6.07;;
1877;SDS011;939;51.426;6.972;2023-02-18T15:10:49;11.65;;;3.97;;
1877;SDS011;939;51.426;6.972;2023-02-18T15:13:24;9.93;;;5.88;;
1877;SDS011;939;51.426;6.972;2023-02-18T15:15:58;8.68;;;5.75;;
1877;SDS011;939;51.426;6.972;2023-02-18T15:18:54;7.90;;;5.38;;
1877;SDS011;939;51.426;6.972;2023-02-18T15:21:31;6.38;;;4.90;;
1877;SDS011;939;51.426;6.972;2023-02-18T15:24:03;7.03;;;5.57;;
1877;SDS011;939;51.426;6.972;2023-02-18T15:26:32;4.63;;;3.40;;
1877;SDS011;939;51.426;6.972;2023-02-18T15:29:02;6.53;;;4.45;;
1877;SDS011;939;51.426;6.972;2023-02-18T15:34:42;7.88;;;5.22;;
1877;SDS011;939;51.426;6.972;2023-02-18T15:37:13;16.75;;;4.20;;
1877;SDS011;939;51.426;6.972;2023-02-18T15:39:41;5.95;;;5.00;;
1877;SDS011;939;51.426;6.972;2023-02-18T16:08:36;5.45;;;2.55;;
1877;SDS011;939;51.426;6.972;2023-02-18T16:11:06;3.40;;;2.63;;
1877;SDS011;939;51.426;6.972;2023-02-18T16:13:36;7.53;;;4.93;;
1877;SDS011;939;51.426;6.972;2023-02-18T16:16:17;14.35;;;7.05;;
1877;SDS011;939;51.426;6.972;2023-02-18T16:18:49;12.05;;;7.32;;
1877;SDS011;939;51.426;6.972;2023-02-18T16:21:22;14.02;;;7.65;;
1877;SDS011;939;51.426;6.972;2023-02-18T16:23:57;9.98;;;5.60;;
1877;SDS011;939;51.426;6.972;2023-02-18T16:26:30;9.45;;;5.38;;
1877;SDS011;939;51.426;6.972;2023-02-18T16:32:07;10.95;;;5.65;;
1877;SDS011;939;51.426;6.972;2023-02-18T16:34:35;9.65;;;6.18;;
1877;SDS011;939;51.426;6.972;2023-02-18T16:37:04;11.38;;;6.20;;
1877;SDS011;939;51.426;6.972;2023-02-18T16:39:53;9.95;;;6.60;;
1877;SDS011;939;51.426;6.972;2023-02-18T16:42:24;7.95;;;6.35;;
1877;SDS011;939;51.426;6.972;2023-02-18T16:44:59;18.42;;;6.82;;
1877;SDS011;939;51.426;6.972;2023-02-18T16:47:35;4.28;;;3.50;;
1877;SDS011;939;51.426;6.972;2023-02-18T16:50:09;8.75;;;6.22;;
1877;SDS011;939;51.426;6.972;2023-02-18T16:52:57;7.15;;;5.40;;
1877;SDS011;939;51.426;6.972;2023-02-18T16:55:39;16.48;;;8.15;;
1877;SDS011;939;51.426;6.972;2023-02-18T16:58:07;3.90;;;3.50;;
1877;SDS011;939;51.426;6.972;2023-02-18T17:00:34;10.55;;;5.63;;
1877;SDS011;939;51.426;6.972;2023-02-18T17:03:03;7.22;;;4.97;;
1877;SDS011;939;51.426;6.972;2023-02-18T17:05:37;8.05;;;4.85;;
1877;SDS011;939;51.426;6.972;2023-02-18T17:08:11;10.05;;;5.30;;
1877;SDS011;939;51.426;6.972;2023-02-18T17:10:45;4.15;;;2.92;;
1877;SDS011;939;51.426;6.972;2023-02-18T17:13:20;5.25;;;3.40;;
1877;SDS011;939;51.426;6.972;2023-02-18T17:15:50;10.27;;;4.13;;
1877;SDS011;939;51.426;6.972;2023-02-18T17:18:24;6.10;;;4.38;;
1877;SDS011;939;51.426;6.972;2023-02-18T17:20:55;6.43;;;4.30;;
1877;SDS011;939;51.426;6.972;2023-02-18T17:23:22;9.00;;;4.63;;
1877;SDS011;939;51.426;6.972;2023-02-18T17:25:53;8.93;;;5.70;;